Quincy, IL

11:21 AM CST on March 02, 2015 (GMT -0600)
Adams County Emergency Management | Change Station
CLOSE
Current Station
Personal Weather Station
Location: Quincy, IL
Elevation: 725 ft
Nearby Weather Stations

Elev 725 ft 39.93 °N, 91.33 °W | Updated 8 seconds ago

Partly Cloudy
Partly Cloudy
31.3 °F
Feels Like 31 °F
N
1.0
Wind Variable Wind from East
Gusts 3.0 mph

Today
High -- | Low -- °F
--% Chance of Precip.
Yesterday
High -- | Low -- °F
Precip. -- in
6:37 AM 5:58 PM
Waxing Gibbous, 92% visible
Pressure 30.54 in
Visibility 10.0 miles
Clouds Clear
Windchill 31 °F
Dew Point 21 °F
Humidity 66%
Rainfall 0.00 in
Snow Depth Not available.
UV 5 out of 12
Pollen .40 out of 12
Air Quality Not available.
Flu Activity Not available.
METAR KUIN 021654Z AUTO 04005KT 10SM CLR M02/M09 A3051 RMK AO2 SLP340 T10221089

More Conditions Fewer Conditions

Pressure 30.54 in
Visibility 10.0 miles
Clouds Clear
Windchill 31 °F
Dew Point 21 °F
Humidity 66%
Rainfall 0.00 in
Snow Depth Not available.
UV 5 out of 12
Pollen .40 out of 12
Air Quality Not available.
Flu Activity Not available.
METAR KUIN 021654Z AUTO 04005KT 10SM CLR M02/M09 A3051 RMK AO2 SLP340 T10221089

More Conditions Fewer Conditions

10-Day Weather Forecast

Almanac

Astronomy

Mar. 02, 2015 Rise Set
Actual Time
Civil Twilight
Nautical Twilight
Astronomical Twilight
Moon
Length of Visible Light
Length of Day
Tomorrow will be .
, % of the Moon is Illuminated

Today's Extremes

State Highs State Lows

Community

WunderPhotos

Upload Photos

1,801,866 photos uploaded!

WunderBlogs® & News

Nearby

Air Quality

  Air Quality AQ Index Pollutant
Not available.

Snow Depth

Station Depth Elevation

Earthquake Activity

City Distance Mag. Time & Date
Minimum magnitude displayed is 2.5.

Coastal Water Temperatures

Place Temperature

Nearby Weather Stations